West Ossipee, New Hampshire
Current Conditions -  °F | °C
As of 7:54 AM on Sunday 23 Nov 2014 (Local Time) from KIZG Reporting Station
Clear Clear  
Wind Chill: 41°   Ceiling: Unl
Heat Index: 44°   Visibility: 10mi
Dew Point: 36°   Wind: 6mph
Humidity: 73%   Direction: 250°WSW
Pressure: 30.01"   Gusts: NA
Location:  43.82°N, 71.21°W
Report Text: KIZG 231254Z AUTO 25005KT 10SM CLR 07/02 A3001 RMK AO2 SLP166 T00670022
Loading
Personal Weather Stations






























Interactive Weather Map New forecast layout! Learn more

10-Day Weather Forecast

Advertisements
Track Severe Weather on mobile